createdAt,value
2023-02-03T00:01:04.429Z,100077.75
2023-02-03T00:03:34.447Z,100076.84
2023-02-03T00:06:02.838Z,100077.49
2023-02-03T00:08:31.494Z,100075.94
2023-02-03T00:11:00.113Z,100076.13
2023-02-03T00:13:28.654Z,100078.75
2023-02-03T00:15:57.145Z,100077.21
2023-02-03T00:18:25.593Z,100078.39
2023-02-03T00:20:54.660Z,100079.27
2023-02-03T00:23:23.172Z,100075.77
2023-02-03T00:25:52.278Z,100075.82
2023-02-03T00:28:20.810Z,100077.16
2023-02-03T00:30:49.883Z,100073.73
2023-02-03T00:33:18.554Z,100071.24
2023-02-03T00:35:46.990Z,100073.88
2023-02-03T00:38:15.759Z,100074.77
2023-02-03T00:40:54.732Z,100072.63
2023-02-03T00:43:24.813Z,100071.85
2023-02-03T00:45:54.724Z,100077.55
2023-02-03T00:48:23.041Z,100075.29
2023-02-03T00:50:51.509Z,100072.34
2023-02-03T00:53:19.772Z,100075.67
2023-02-03T00:55:48.127Z,100073.88
2023-02-03T00:58:16.654Z,100075.80
2023-02-03T01:00:45.206Z,100073.52
2023-02-03T01:03:13.951Z,100068.50
2023-02-03T01:05:42.354Z,100068.63
2023-02-03T01:08:10.829Z,100067.73
2023-02-03T01:10:39.497Z,100067.06
2023-02-03T01:13:10.397Z,100063.58
2023-02-03T01:15:45.948Z,100061.56
2023-02-03T01:18:14.391Z,100062.77
2023-02-03T01:20:43.384Z,100060.85
2023-02-03T01:23:11.601Z,100061.81
2023-02-03T01:25:44.665Z,100056.85
2023-02-03T01:28:13.940Z,100058.67
2023-02-03T01:30:42.383Z,100058.45
2023-02-03T01:33:10.933Z,100061.42
2023-02-03T01:35:39.355Z,100063.53
2023-02-03T01:38:07.838Z,100062.60
2023-02-03T01:40:43.109Z,100067.47
2023-02-03T01:43:11.921Z,100067.55
2023-02-03T01:45:42.227Z,100070.37
2023-02-03T01:48:10.763Z,100063.89
2023-02-03T01:50:39.430Z,100060.46
2023-02-03T01:53:09.186Z,100059.54
2023-02-03T01:55:45.844Z,100055.45
2023-02-03T01:58:26.117Z,100061.70
2023-02-03T02:00:57.679Z,100063.69
2023-02-03T02:03:44.639Z,100063.95
2023-02-03T02:06:14.218Z,100064.77
2023-02-03T02:08:45.044Z,100067.84
2023-02-03T02:11:16.251Z,100063.61
2023-02-03T02:13:44.789Z,100063.63
2023-02-03T02:16:42.372Z,100058.35
2023-02-03T02:19:19.984Z,100060.35
2023-02-03T02:21:51.743Z,100057.77
2023-02-03T02:24:32.574Z,100062.66
2023-02-03T02:27:29.391Z,100062.95
2023-02-03T02:30:36.849Z,100063.09
2023-02-03T02:33:48.309Z,100066.30
2023-02-03T02:36:32.632Z,100068.68
2023-02-03T02:39:07.031Z,100069.05
2023-02-03T02:41:44.442Z,100070.87
2023-02-03T02:44:23.970Z,100071.84
2023-02-03T02:46:57.452Z,100072.90
2023-02-03T02:49:58.854Z,100071.17
2023-02-03T02:52:29.329Z,100063.34
2023-02-03T02:55:00.376Z,100062.09
2023-02-03T02:57:28.842Z,100055.64
2023-02-03T02:59:58.231Z,100054.78
2023-02-03T03:02:36.152Z,100053.60
2023-02-03T03:05:05.901Z,100059.90
2023-02-03T03:07:40.094Z,100067.17
2023-02-03T03:10:10.636Z,100060.70
2023-02-03T03:12:41.788Z,100061.51
2023-02-03T03:15:20.146Z,100056.40
2023-02-03T03:18:13.389Z,100052.54
2023-02-03T03:20:44.515Z,100048.27
2023-02-03T03:23:19.788Z,100048.77
2023-02-03T03:25:50.090Z,100039.93
2023-02-03T03:28:25.002Z,100039.19
2023-02-03T03:30:53.577Z,100037.58
2023-02-03T03:33:22.446Z,100038.23
2023-02-03T03:35:55.990Z,100037.35
2023-02-03T03:38:26.238Z,100042.27
2023-02-03T03:41:08.940Z,100050.67
2023-02-03T03:43:39.216Z,100055.16
2023-02-03T03:46:14.003Z,100057.99
2023-02-03T03:48:52.413Z,100063.73
2023-02-03T03:51:25.894Z,100065.22
2023-02-03T03:53:54.176Z,100067.86
2023-02-03T03:56:26.275Z,100064.89
2023-02-03T03:58:55.142Z,100064.67
2023-02-03T04:01:23.615Z,100068.83
2023-02-03T04:04:00.583Z,100075.36
2023-02-03T04:06:29.194Z,100074.61
2023-02-03T04:08:58.073Z,100071.78
2023-02-03T04:11:44.866Z,100071.20
2023-02-03T04:14:13.291Z,100068.24
2023-02-03T04:16:41.731Z,100069.50
2023-02-03T04:19:10.014Z,100065.59
2023-02-03T04:21:41.415Z,100067.96
2023-02-03T04:24:09.958Z,100070.55
2023-02-03T04:26:38.346Z,100072.27
2023-02-03T04:29:06.935Z,100073.39
2023-02-03T04:31:35.279Z,100073.99
2023-02-03T04:34:03.852Z,100073.89
2023-02-03T04:36:35.132Z,100076.13
2023-02-03T04:39:03.738Z,100076.86
2023-02-03T04:41:33.020Z,100079.96
2023-02-03T04:44:01.396Z,100080.63
2023-02-03T04:46:29.776Z,100081.34
2023-02-03T04:48:58.363Z,100078.86
2023-02-03T04:51:26.697Z,100080.41
2023-02-03T04:53:55.154Z,100078.75
2023-02-03T04:56:23.483Z,100083.34
2023-02-03T04:58:52.260Z,100083.25
2023-02-03T05:01:20.953Z,100086.18
2023-02-03T05:04:04.463Z,100090.05
2023-02-03T05:06:33.084Z,100093.40
2023-02-03T05:09:01.404Z,100101.06
2023-02-03T05:11:29.801Z,100102.73
2023-02-03T05:13:58.473Z,100108.39
2023-02-03T05:16:27.313Z,100109.08
2023-02-03T05:18:55.863Z,100113.55
2023-02-03T05:21:24.710Z,100113.42
2023-02-03T05:23:53.166Z,100113.83
2023-02-03T05:26:21.595Z,100120.36
2023-02-03T05:28:51.084Z,100123.71
2023-02-03T05:31:20.853Z,100122.14
2023-02-03T05:33:49.262Z,100125.41
2023-02-03T05:36:17.678Z,100134.27
2023-02-03T05:38:46.305Z,100133.42
2023-02-03T05:41:33.174Z,100131.26
2023-02-03T05:44:01.646Z,100131.19
2023-02-03T05:46:30.492Z,100140.18
2023-02-03T05:48:58.832Z,100134.86
2023-02-03T05:51:27.224Z,100136.23
2023-02-03T05:53:57.315Z,100137.98
2023-02-03T05:56:26.540Z,100136.55
2023-02-03T05:58:55.498Z,100139.91
2023-02-03T06:01:24.019Z,100140.52
2023-02-03T06:03:52.582Z,100144.20
2023-02-03T06:06:21.143Z,100148.90
2023-02-03T06:08:56.408Z,100148.16
2023-02-03T06:11:27.244Z,100148.97
2023-02-03T06:13:58.699Z,100152.31
2023-02-03T06:16:27.851Z,100152.52
2023-02-03T06:18:59.749Z,100163.30
2023-02-03T06:21:28.386Z,100163.43
2023-02-03T06:23:57.072Z,100166.73
2023-02-03T06:26:25.652Z,100167.15
2023-02-03T06:28:53.981Z,100168.56
2023-02-03T06:31:22.694Z,100170.69
2023-02-03T06:33:51.006Z,100174.73
2023-02-03T06:36:19.227Z,100179.66
2023-02-03T06:38:47.652Z,100184.64
2023-02-03T06:41:16.952Z,100184.79
2023-02-03T06:43:45.393Z,100185.77
2023-02-03T06:46:13.927Z,100187.54
2023-02-03T06:48:42.296Z,100195.63
2023-02-03T06:51:11.183Z,100195.89
2023-02-03T06:53:39.555Z,100192.84
2023-02-03T06:56:08.220Z,100190.60
2023-02-03T06:58:36.527Z,100184.52
2023-02-03T07:01:05.137Z,100183.69
2023-02-03T07:03:33.625Z,100183.33
2023-02-03T07:06:02.298Z,100181.66
2023-02-03T07:08:30.780Z,100182.37
2023-02-03T07:10:59.026Z,100182.22
2023-02-03T07:13:27.657Z,100185.44
2023-02-03T07:15:56.194Z,100187.84
2023-02-03T07:21:15.050Z,100185.33
2023-02-03T07:23:43.751Z,100186.55
2023-02-03T07:26:12.008Z,100189.57
2023-02-03T07:28:40.484Z,100186.63
2023-02-03T07:31:10.644Z,100191.30
2023-02-03T07:33:40.027Z,100187.65
2023-02-03T07:36:09.092Z,100190.39
2023-02-03T07:38:40.622Z,100191.07
2023-02-03T07:41:08.856Z,100192.80
2023-02-03T07:43:37.787Z,100188.50
2023-02-03T07:46:06.227Z,100191.14
2023-02-03T07:48:35.792Z,100186.01
2023-02-03T07:51:04.307Z,100186.08
2023-02-03T07:53:32.777Z,100182.85
2023-02-03T07:56:02.305Z,100183.90
2023-02-03T07:58:31.238Z,100185.52
2023-02-03T08:00:59.721Z,100181.65
2023-02-03T08:03:28.101Z,100185.27
2023-02-03T08:05:56.492Z,100186.92
2023-02-03T08:08:24.802Z,100181.30
2023-02-03T08:10:56.206Z,100180.85
2023-02-03T08:13:24.483Z,100180.69
2023-02-03T08:15:53.009Z,100177.74
2023-02-03T08:18:21.523Z,100174.32
2023-02-03T08:20:50.283Z,100175.64
2023-02-03T08:23:18.646Z,100174.11
2023-02-03T08:25:51.312Z,100178.27
2023-02-03T08:28:20.520Z,100178.23
2023-02-03T08:30:49.002Z,100182.27
2023-02-03T08:33:20.216Z,100180.77
2023-02-03T08:35:53.098Z,100180.77
2023-02-03T08:38:22.089Z,100182.36
2023-02-03T08:40:50.540Z,100180.52
2023-02-03T08:43:19.489Z,100178.54
2023-02-03T08:45:48.006Z,100177.24
2023-02-03T08:48:16.352Z,100167.55
2023-02-03T08:50:52.104Z,100163.32
2023-02-03T08:53:20.498Z,100155.27
2023-02-03T08:55:48.892Z,100158.58
2023-02-03T08:58:17.979Z,100156.38
2023-02-03T09:00:50.137Z,100155.28
2023-02-03T09:03:18.768Z,100156.48
2023-02-03T09:05:47.215Z,100151.83
2023-02-03T09:08:17.950Z,100153.90
2023-02-03T09:10:46.329Z,100153.58
2023-02-03T09:13:14.724Z,100151.13
2023-02-03T09:15:43.483Z,100146.88
2023-02-03T09:18:11.885Z,100147.73
2023-02-03T09:20:41.572Z,100139.18
2023-02-03T09:23:10.394Z,100134.78
2023-02-03T09:25:39.480Z,100138.70
2023-02-03T09:28:08.338Z,100135.21
2023-02-03T09:30:36.973Z,100132.88
2023-02-03T09:33:06.251Z,100135.65
2023-02-03T09:35:34.964Z,100135.34
2023-02-03T09:38:03.339Z,100137.19
2023-02-03T09:40:34.289Z,100134.91
2023-02-03T09:43:12.969Z,100137.48
2023-02-03T09:45:41.404Z,100132.65
2023-02-03T09:48:16.662Z,100130.62
2023-02-03T09:50:45.439Z,100121.41
2023-02-03T09:53:22.915Z,100116.55
2023-02-03T09:55:51.336Z,100114.95
2023-02-03T09:58:23.137Z,100116.13
2023-02-03T10:01:02.657Z,100112.34
2023-02-03T10:03:38.532Z,100106.55
2023-02-03T10:06:18.927Z,100105.96
2023-02-03T10:09:18.744Z,100105.95
2023-02-03T13:20:18.361Z,99994.59
2023-02-03T13:22:47.312Z,99984.42
2023-02-03T13:25:26.586Z,99977.52
2023-02-03T13:28:38.493Z,99979.53
2023-02-03T13:31:43.443Z,99979.48
2023-02-03T13:34:30.425Z,99971.20
2023-02-03T13:37:28.031Z,99972.16
2023-02-03T13:40:11.718Z,99967.66
2023-02-03T13:42:48.409Z,99963.34
2023-02-03T13:45:32.935Z,99964.66
2023-02-03T13:48:24.977Z,99965.13
2023-02-03T13:51:07.909Z,99965.45
2023-02-03T13:53:40.073Z,99967.63
2023-02-03T13:56:23.874Z,99962.80
2023-02-03T13:59:02.792Z,99964.31
2023-02-03T14:01:36.643Z,99963.94
2023-02-03T14:04:26.561Z,99962.19
2023-02-03T14:06:59.234Z,99960.61
2023-02-03T14:09:31.187Z,99962.62
2023-02-03T14:12:37.738Z,99964.44
2023-02-03T14:15:25.976Z,99962.83
2023-02-03T14:18:00.899Z,99966.02
2023-02-03T14:20:29.790Z,99962.03
2023-02-03T14:23:02.069Z,99964.02
2023-02-03T14:25:31.728Z,99965.15
2023-02-03T14:28:01.218Z,99962.34
2023-02-03T14:30:31.310Z,99962.97
2023-02-03T14:33:01.637Z,99961.52
2023-02-03T14:35:34.254Z,99955.45
2023-02-03T14:38:07.827Z,99955.55
2023-02-03T14:40:50.206Z,99956.17
2023-02-03T14:43:25.379Z,99959.76
2023-02-03T14:46:01.858Z,99961.08
2023-02-03T14:48:49.643Z,99955.57
2023-02-03T14:51:42.104Z,99953.10
2023-02-03T14:54:35.456Z,99954.91
2023-02-03T14:57:17.435Z,99950.52
2023-02-03T15:00:06.098Z,99951.08
2023-02-03T15:02:36.698Z,99947.89
2023-02-03T15:05:14.469Z,99948.64
2023-02-03T15:07:46.776Z,99952.65
2023-02-03T15:10:21.927Z,99949.13
2023-02-03T15:12:56.059Z,99952.77
2023-02-03T15:15:33.590Z,99948.25
2023-02-03T15:18:21.579Z,99949.38
2023-02-03T15:20:55.590Z,99951.94
2023-02-03T15:23:48.430Z,99950.09
2023-02-03T15:26:21.305Z,99949.94
2023-02-03T15:29:01.362Z,99951.48
2023-02-03T15:31:37.212Z,99955.08
2023-02-03T15:34:14.465Z,99954.89
2023-02-03T15:36:46.070Z,99953.61
2023-02-03T15:39:39.264Z,99951.84
2023-02-03T15:42:10.891Z,99955.52
2023-02-03T15:44:42.271Z,99958.32
2023-02-03T15:47:23.111Z,99964.92
2023-02-03T15:50:18.000Z,99962.44
2023-02-03T15:52:47.406Z,99968.18
2023-02-03T15:55:54.927Z,99967.98
2023-02-03T15:58:28.188Z,99972.39
2023-02-03T16:01:01.565Z,99972.05
2023-02-03T16:03:41.611Z,99972.77
2023-02-03T16:06:25.378Z,99972.02
2023-02-03T16:08:55.020Z,99973.61
2023-02-03T16:11:28.807Z,99970.37
2023-02-03T16:14:02.054Z,99974.09
2023-02-03T16:17:05.772Z,99976.20
2023-02-03T16:19:40.545Z,99980.69
2023-02-03T16:22:28.738Z,99978.67
2023-02-03T16:24:57.554Z,99974.17
2023-02-03T16:27:27.323Z,99972.90
2023-02-03T16:30:26.341Z,99975.20
2023-02-03T16:33:35.486Z,99971.36
2023-02-03T16:36:33.703Z,99970.59
2023-02-03T16:39:22.187Z,99972.78
2023-02-03T16:42:09.692Z,99968.38
2023-02-03T16:44:57.690Z,99970.80
2023-02-03T16:47:47.446Z,99969.27
2023-02-03T16:50:39.147Z,99967.00
2023-02-03T16:53:14.895Z,99967.11
2023-02-03T16:55:44.840Z,99964.97
2023-02-03T16:58:13.295Z,99960.92
2023-02-03T17:00:42.817Z,99964.87
2023-02-03T17:03:20.016Z,99968.81
2023-02-03T17:05:49.013Z,99967.30
2023-02-03T17:08:20.588Z,99969.60
2023-02-03T17:10:49.914Z,99968.58
2023-02-03T17:13:20.497Z,99964.17
2023-02-03T17:15:52.919Z,99964.05
2023-02-03T17:18:21.770Z,99965.63
2023-02-03T17:20:51.142Z,99971.07
2023-02-03T17:23:19.842Z,99972.26
2023-02-03T17:25:50.210Z,99968.52
2023-02-03T17:28:20.364Z,99965.47
2023-02-03T17:31:04.375Z,99959.63
2023-02-03T17:33:36.458Z,99957.36
2023-02-03T17:36:08.467Z,99953.20
2023-02-03T17:55:25.696Z,99947.52
2023-02-03T17:57:55.313Z,99947.42
2023-02-03T18:00:24.127Z,99946.12
2023-02-03T18:02:55.066Z,99943.63
2023-02-03T18:05:23.979Z,99947.77
2023-02-03T18:07:56.734Z,99942.79
2023-02-03T18:10:26.071Z,99942.45
2023-02-03T18:12:55.962Z,99940.48
2023-02-03T18:15:25.461Z,99940.73
2023-02-03T18:17:56.376Z,99936.90
2023-02-03T18:20:26.415Z,99930.61
2023-02-03T18:22:58.452Z,99931.45
2023-02-03T18:25:27.900Z,99920.32
2023-02-03T18:27:58.038Z,99923.60
2023-02-03T18:30:26.935Z,99924.14
2023-02-03T18:32:55.980Z,99921.98
2023-02-03T18:35:26.533Z,99919.83
2023-02-03T18:37:56.396Z,99918.59
2023-02-03T18:40:25.644Z,99912.63
2023-02-03T18:42:56.485Z,99914.86
2023-02-03T18:45:25.559Z,99915.39
2023-02-03T18:47:55.404Z,99918.11
2023-02-03T18:50:26.368Z,99919.23
2023-02-03T18:52:55.535Z,99916.59
2023-02-03T18:55:24.647Z,99912.25
2023-02-03T18:57:53.120Z,99907.24
2023-02-03T19:00:22.167Z,99908.41
2023-02-03T19:02:54.772Z,99904.80
2023-02-03T19:05:24.466Z,99901.08
2023-02-03T19:07:53.379Z,99894.98
2023-02-03T19:10:23.103Z,99896.56
2023-02-03T19:12:53.148Z,99894.02
2023-02-03T19:15:22.402Z,99893.83
2023-02-03T19:17:52.627Z,99897.67
2023-02-03T19:20:21.301Z,99896.73
2023-02-03T19:22:50.618Z,99897.94
2023-02-03T19:25:19.931Z,99895.92
2023-02-03T19:27:51.371Z,99895.61
2023-02-03T19:30:22.369Z,99894.30
2023-02-03T19:32:51.170Z,99895.91
2023-02-03T19:35:20.617Z,99887.67
2023-02-03T19:37:49.630Z,99886.27
2023-02-03T19:40:18.778Z,99889.13
2023-02-03T19:42:50.516Z,99886.14
2023-02-03T19:45:20.324Z,99888.45
2023-02-03T19:47:49.951Z,99884.63
2023-02-03T19:50:19.290Z,99876.55
2023-02-03T19:52:49.299Z,99876.01
2023-02-03T19:55:18.411Z,99879.02
2023-02-03T19:57:47.503Z,99877.61
2023-02-03T20:00:17.149Z,99876.34
2023-02-03T20:02:47.554Z,99879.52
2023-02-03T20:05:17.661Z,99877.08
2023-02-03T20:07:46.277Z,99877.92
2023-02-03T20:10:16.024Z,99874.84
2023-02-03T20:12:50.943Z,99872.00
2023-02-03T20:15:19.549Z,99872.08
2023-02-03T20:17:51.932Z,99867.55
2023-02-03T20:20:21.611Z,99865.96
2023-02-03T20:22:51.438Z,99869.69
2023-02-03T20:25:21.552Z,99870.52
2023-02-03T20:27:52.700Z,99871.81
2023-02-03T20:30:22.725Z,99867.98
2023-02-03T20:32:51.127Z,99865.31
2023-02-03T20:35:20.288Z,99869.30
2023-02-03T20:37:49.571Z,99869.70
2023-02-03T20:40:19.094Z,99860.90
2023-02-03T20:42:49.747Z,99866.41
2023-02-03T20:45:20.135Z,99863.92
2023-02-03T20:47:51.264Z,99863.45
2023-02-03T20:50:25.044Z,99861.13
2023-02-03T20:52:55.716Z,99864.14
2023-02-03T20:55:25.189Z,99863.88
2023-02-03T20:57:57.842Z,99861.20
2023-02-03T21:00:27.789Z,99861.58
2023-02-03T21:03:16.701Z,99860.42
2023-02-03T21:05:48.196Z,99862.54
2023-02-03T21:08:18.879Z,99858.16
2023-02-03T21:10:48.138Z,99859.04
2023-02-03T21:13:24.591Z,99859.42
2023-02-03T21:15:59.817Z,99855.83
2023-02-03T21:18:39.854Z,99856.62
2023-02-03T21:21:20.456Z,99849.63
2023-02-03T21:23:51.756Z,99851.17
2023-02-03T21:26:24.103Z,99845.88
2023-02-03T21:28:54.591Z,99844.67
2023-02-03T21:31:28.687Z,99839.27
2023-02-03T21:34:04.797Z,99841.55
2023-02-03T21:36:36.072Z,99836.45
2023-02-03T21:39:12.483Z,99839.17
2023-02-03T21:41:41.226Z,99840.35
2023-02-03T21:44:25.140Z,99834.96
2023-02-03T21:46:54.491Z,99833.04
2023-02-03T21:49:24.412Z,99827.59
2023-02-03T21:51:54.498Z,99826.21
2023-02-03T21:54:33.202Z,99821.06
2023-02-03T21:57:02.307Z,99821.05
2023-02-03T21:59:38.901Z,99818.11
2023-02-03T22:02:44.174Z,99817.58
2023-02-03T22:05:15.519Z,99811.63
2023-02-03T22:07:44.819Z,99814.55
2023-02-03T22:10:14.687Z,99809.43
2023-02-03T22:12:43.378Z,99811.25
2023-02-03T22:15:13.408Z,99809.15
2023-02-03T22:17:44.828Z,99809.02
2023-02-03T22:20:15.482Z,99808.70
2023-02-03T22:22:45.608Z,99808.70
2023-02-03T22:25:14.882Z,99803.77
2023-02-03T22:27:43.306Z,99806.20
2023-02-03T22:30:16.099Z,99799.30
2023-02-03T22:32:46.141Z,99802.31
2023-02-03T22:35:15.618Z,99798.09
2023-02-03T22:37:44.782Z,99794.50
2023-02-03T22:40:14.009Z,99798.86
2023-02-03T22:42:44.078Z,99790.42
2023-02-03T22:45:12.598Z,99788.80
2023-02-03T22:47:42.709Z,99790.48
2023-02-03T22:50:16.373Z,99787.89
2023-02-03T22:52:47.250Z,99788.48
2023-02-03T22:55:18.937Z,99789.71
2023-02-03T22:57:48.714Z,99786.02
2023-02-03T23:00:21.932Z,99788.48
2023-02-03T23:02:53.238Z,99790.46
2023-02-03T23:05:24.424Z,99787.20
2023-02-03T23:07:54.020Z,99781.23
2023-02-03T23:10:25.228Z,99783.60
2023-02-03T23:12:56.612Z,99784.12
2023-02-03T23:15:25.792Z,99782.85
2023-02-03T23:17:58.682Z,99781.48
2023-02-03T23:20:29.874Z,99778.08
2023-02-03T23:22:59.097Z,99774.65
2023-02-03T23:25:29.307Z,99770.34
2023-02-03T23:27:58.601Z,99767.21
2023-02-03T23:30:27.954Z,99769.02
2023-02-03T23:32:57.026Z,99765.22
2023-02-03T23:35:45.026Z,99765.38
2023-02-03T23:38:14.648Z,99764.52
2023-02-03T23:46:16.572Z,99762.38
2023-02-03T23:48:45.600Z,99757.29
2023-02-03T23:51:14.513Z,99756.14
2023-02-03T23:53:43.892Z,99756.71
2023-02-03T23:56:15.409Z,99748.58
2023-02-03T23:58:44.756Z,99748.48
